Time;durP1;ratioP1;P1;durP2;ratioP2;P2;SDS_P1;SDS_P2;PMS_P1;PMS_P2;Temp;Humidity;BMP_temperature;BMP_pressure;BME280_temperature;BME280_humidity;BME280_pressure;Samples;Min_cycle;Max_cycle;Signal;HPM_P1;HPM_P2
2023/05/26 09:38:00;;;;;;;8.52;1.50;;;18.90;97.20;;;;;;4954113;23;20247;-71
2023/05/26 09:40:27;;;;;;;7.13;1.40;;;19.10;97.40;;;;;;4955156;28;20204;-71
2023/05/26 09:42:54;;;;;;;10.45;1.50;;;19.30;96.80;;;;;;4955343;28;20215;-71
2023/05/26 09:45:22;;;;;;;9.90;1.75;;;19.40;96.60;;;;;;4955004;28;20234;-71
2023/05/26 09:47:53;;;;;;;8.88;1.73;;;19.40;97.10;;;;;;4955109;28;20536;-71
2023/05/26 09:50:20;;;;;;;7.75;1.55;;;19.60;95.80;;;;;;4955244;28;20216;-71
2023/05/26 09:52:49;;;;;;;7.82;1.92;;;19.50;96.00;;;;;;4954950;28;20710;-71
2023/05/26 09:55:18;;;;;;;6.57;1.70;;;19.10;96.80;;;;;;4954816;28;20319;-71
2023/05/26 09:57:45;;;;;;;9.30;1.98;;;18.50;97.50;;;;;;4954772;28;20263;-72
2023/05/26 10:00:14;;;;;;;7.32;1.85;;;18.40;97.80;;;;;;4955245;28;20212;-72
2023/05/26 10:02:42;;;;;;;7.43;1.83;;;18.90;97.70;;;;;;4955178;28;20214;-71
2023/05/26 10:05:12;;;;;;;10.60;1.80;;;18.70;97.70;;;;;;4954759;28;20702;-71
2023/05/26 10:07:42;;;;;;;6.77;1.73;;;18.20;97.90;;;;;;4954961;28;20232;-71
2023/05/26 10:10:13;;;;;;;9.23;1.50;;;18.00;97.90;;;;;;4954583;28;20583;-72
2023/05/26 10:12:43;;;;;;;5.87;1.63;;;17.60;98.50;;;;;;4957135;28;20235;-72
2023/05/26 10:15:11;;;;;;;8.00;1.40;;;17.50;98.70;;;;;;4953877;28;20310;-73
2023/05/26 10:17:39;;;;;;;11.53;1.67;;;17.50;99.10;;;;;;4956614;28;20207;-75
2023/05/26 10:20:08;;;;;;;7.53;1.90;;;17.60;98.90;;;;;;4954478;28;20291;-72
2023/05/26 10:22:41;;;;;;;5.40;1.60;;;17.80;99.10;;;;;;4955989;28;20208;-72
2023/05/26 10:25:16;;;;;;;5.57;1.70;;;17.70;99.20;;;;;;4957163;28;20227;-72
2023/05/26 10:27:51;;;;;;;8.93;1.87;;;17.80;98.50;;;;;;4955745;28;20200;-73
2023/05/26 10:30:20;;;;;;;8.10;1.43;;;17.70;98.80;;;;;;4956896;28;20209;-73
2023/05/26 10:32:48;;;;;;;6.87;1.30;;;17.50;98.70;;;;;;4961633;28;20241;-74
2023/05/26 10:35:23;;;;;;;4.03;1.90;;;17.50;98.20;;;;;;4955789;28;20231;-71
2023/05/26 10:38:11;;;;;;;8.73;1.50;;;17.50;97.90;;;;;;4956289;28;20222;-74
2023/05/26 10:40:41;;;;;;;7.57;1.57;;;17.40;98.80;;;;;;4957003;28;20211;-72
2023/05/26 10:43:24;;;;;;;5.47;1.40;;;17.60;98.70;;;;;;4955351;28;20251;-73
2023/05/26 10:45:53;;;;;;;8.87;1.87;;;18.00;97.40;;;;;;4955452;28;20641;-72
2023/05/26 10:48:20;;;;;;;9.23;1.93;;;18.00;97.50;;;;;;4956534;28;20208;-73
2023/05/26 10:51:25;;;;;;;11.20;1.60;;;18.30;98.30;;;;;;4956380;28;20208;-73
2023/05/26 10:53:53;;;;;;;9.27;2.00;;;18.30;97.70;;;;;;4935875;29;20263;-73
2023/05/26 10:56:25;;;;;;;9.80;1.97;;;18.00;97.60;;;;;;4936206;29;20774;-76
2023/05/26 10:58:57;;;;;;;6.03;1.33;;;17.80;96.80;;;;;;4947526;28;20204;-76
2023/05/26 11:01:30;;;;;;;6.13;1.70;;;18.00;97.10;;;;;;4957514;28;20208;-77
2023/05/26 11:03:58;;;;;;;7.47;1.70;;;18.20;97.60;;;;;;4957653;28;20714;-76
2023/05/26 11:06:35;;;;;;;6.07;1.50;;;18.30;97.90;;;;;;4957759;28;20208;-76
2023/05/26 11:09:07;;;;;;;7.10;1.60;;;18.10;97.00;;;;;;4957526;28;20268;-74
2023/05/26 11:11:38;;;;;;;6.53;1.70;;;18.10;97.90;;;;;;4957628;28;20208;-76
2023/05/26 11:14:09;;;;;;;9.93;1.40;;;17.90;97.30;;;;;;4957588;29;20326;-75
2023/05/26 11:16:37;;;;;;;6.83;1.40;;;17.80;98.20;;;;;;4957768;28;20615;-75
2023/05/26 11:19:06;;;;;;;9.90;1.97;;;17.90;98.40;;;;;;4958848;28;20212;-76
2023/05/26 11:21:34;;;;;;;7.80;1.73;;;17.90;97.80;;;;;;4958693;28;20212;-76
2023/05/26 11:24:03;;;;;;;8.23;1.83;;;17.90;98.10;;;;;;4960085;28;20231;-76
2023/05/26 11:26:31;;;;;;;11.33;1.60;;;17.80;98.10;;;;;;4959119;28;20215;-77
2023/05/26 11:28:59;;;;;;;8.90;1.40;;;18.00;97.90;;;;;;4961647;28;20208;-73
2023/05/26 11:31:28;;;;;;;9.97;1.63;;;18.10;97.50;;;;;;4961053;28;20210;-75
2023/05/26 11:33:57;;;;;;;10.77;1.77;;;18.20;97.00;;;;;;4961645;28;20563;-77
2023/05/26 11:36:24;;;;;;;7.77;1.40;;;18.30;98.00;;;;;;4960412;28;20276;-74
2023/05/26 11:38:54;;;;;;;7.57;1.50;;;18.60;97.30;;;;;;4958954;28;20705;-74
2023/05/26 11:41:25;;;;;;;4.17;1.30;;;18.40;97.10;;;;;;4956559;28;20208;-74
2023/05/26 11:43:54;;;;;;;5.53;1.80;;;18.50;96.80;;;;;;4956531;28;20586;-75
2023/05/26 11:46:22;;;;;;;7.17;1.40;;;18.60;96.60;;;;;;4956965;28;20263;-75
2023/05/26 11:48:51;;;;;;;9.07;1.83;;;18.40;96.60;;;;;;4956847;28;20238;-75
2023/05/26 11:51:19;;;;;;;6.17;1.63;;;18.50;95.90;;;;;;4956087;28;20208;-74
2023/05/26 11:53:47;;;;;;;6.43;1.57;;;18.50;95.80;;;;;;4955692;28;20445;-75
2023/05/26 11:56:16;;;;;;;11.03;1.87;;;18.60;95.90;;;;;;4955870;28;20212;-75
2023/05/26 11:58:44;;;;;;;6.07;1.60;;;18.60;95.80;;;;;;4955727;28;20243;-74
2023/05/26 12:01:15;;;;;;;8.48;1.77;;;18.50;95.60;;;;;;4956021;28;20675;-76
2023/05/26 12:03:44;;;;;;;7.35;1.75;;;18.60;96.10;;;;;;4956649;29;20259;-75
2023/05/26 12:06:16;;;;;;;5.97;1.55;;;18.70;95.50;;;;;;4955865;29;20218;-76
2023/05/26 12:08:47;;;;;;;6.43;1.73;;;18.70;96.00;;;;;;4956427;28;20211;-76
2023/05/26 12:11:16;;;;;;;6.67;1.73;;;18.70;95.60;;;;;;4956598;28;20215;-76
2023/05/26 12:13:43;;;;;;;9.13;1.67;;;18.70;96.10;;;;;;4956374;28;20232;-75
2023/05/26 12:16:25;;;;;;;7.47;1.35;;;18.80;95.30;;;;;;4956438;29;20208;-76
2023/05/26 12:18:57;;;;;;;6.15;1.40;;;18.90;94.70;;;;;;4956120;28;20238;-76
2023/05/26 12:21:26;;;;;;;6.97;1.70;;;18.90;94.80;;;;;;4955994;28;20208;-76
2023/05/26 12:23:55;;;;;;;5.22;1.30;;;18.70;95.10;;;;;;4950419;28;20230;-76
2023/05/26 12:26:27;;;;;;;7.00;1.27;;;18.70;95.40;;;;;;4957025;28;20215;-76
2023/05/26 12:29:07;;;;;;;4.32;1.20;;;18.70;95.00;;;;;;4963153;28;20630;-76
2023/05/26 12:31:42;;;;;;;5.83;1.57;;;18.80;95.10;;;;;;4975398;28;20225;-77
2023/05/26 12:34:10;;;;;;;5.65;1.50;;;18.70;94.30;;;;;;4955077;28;20239;-79
2023/05/26 12:36:38;;;;;;;7.37;1.67;;;18.90;94.90;;;;;;4955860;28;20235;-78
2023/05/26 12:39:05;;;;;;;9.17;1.80;;;18.90;95.10;;;;;;4955394;29;20216;-75
2023/05/26 12:41:32;;;;;;;9.02;1.63;;;19.00;94.90;;;;;;4966778;28;20598;-76
2023/05/26 12:44:00;;;;;;;5.97;1.73;;;19.10;95.20;;;;;;4956833;28;20751;-74
2023/05/26 12:46:28;;;;;;;5.82;1.30;;;19.20;94.00;;;;;;4955458;28;20270;-78
2023/05/26 12:48:54;;;;;;;4.18;1.25;;;19.10;93.10;;;;;;4955771;28;20299;-83
2023/05/26 12:51:21;;;;;;;8.55;1.83;;;19.10;93.30;;;;;;4955689;28;20312;-82
2023/05/26 12:53:49;;;;;;;4.95;1.42;;;19.30;94.00;;;;;;4954998;28;20327;-80
2023/05/26 12:56:17;;;;;;;7.22;1.63;;;19.40;93.70;;;;;;4955499;28;20553;-76
2023/05/26 12:58:45;;;;;;;7.13;1.30;;;19.20;93.60;;;;;;4955758;28;20211;-87
2023/05/26 13:01:12;;;;;;;4.72;1.10;;;19.10;93.90;;;;;;4955210;28;20227;-84
2023/05/26 13:03:40;;;;;;;6.47;1.50;;;19.10;93.60;;;;;;4955221;28;20218;-81
2023/05/26 13:06:08;;;;;;;9.00;1.30;;;19.20;94.00;;;;;;4955339;29;20208;-75
2023/05/26 13:08:36;;;;;;;5.78;1.13;;;19.30;93.40;;;;;;4949935;28;20209;-84
2023/05/26 13:11:04;;;;;;;5.05;1.00;;;19.40;93.00;;;;;;4955648;28;20287;-80
2023/05/26 13:13:32;;;;;;;6.45;1.58;;;19.40;92.10;;;;;;4954718;28;20232;-80
2023/05/26 13:15:59;;;;;;;8.45;1.75;;;19.50;92.00;;;;;;4968477;28;20207;-79
2023/05/26 13:18:26;;;;;;;7.38;1.20;;;19.40;91.90;;;;;;4954523;28;20212;-84
2023/05/26 13:20:53;;;;;;;5.60;1.67;;;19.30;92.00;;;;;;4954951;28;20231;-81
2023/05/26 13:23:20;;;;;;;6.47;1.30;;;19.20;92.20;;;;;;4961366;28;20207;-80
2023/05/26 13:25:47;;;;;;;3.15;0.93;;;19.00;92.30;;;;;;4950824;28;20234;-82
2023/05/26 13:28:15;;;;;;;7.65;1.42;;;19.10;91.80;;;;;;4954033;28;20303;-77
2023/05/26 13:30:42;;;;;;;6.43;1.30;;;19.20;91.70;;;;;;4954068;28;20302;-83
2023/05/26 13:33:09;;;;;;;4.88;1.10;;;19.30;91.80;;;;;;4952942;28;20230;-74
2023/05/26 13:35:36;;;;;;;7.65;1.00;;;19.20;91.40;;;;;;4966045;28;20229;-79
2023/05/26 13:38:02;;;;;;;4.90;1.23;;;19.10;91.70;;;;;;4971633;28;20215;-79
2023/05/26 13:40:29;;;;;;;5.75;1.25;;;19.20;91.50;;;;;;4972591;28;20617;-74
2023/05/26 13:42:56;;;;;;;2.53;0.95;;;19.30;91.20;;;;;;4961648;28;20208;-85
2023/05/26 13:45:25;;;;;;;2.85;1.15;;;19.30;91.80;;;;;;4953300;28;20287;-79
2023/05/26 13:47:52;;;;;;;5.07;1.08;;;19.40;91.70;;;;;;4952894;28;20641;-83
2023/05/26 13:50:19;;;;;;;6.03;1.30;;;19.30;91.70;;;;;;4953455;28;20248;-73
2023/05/26 13:52:46;;;;;;;5.55;1.00;;;19.40;91.20;;;;;;4953544;28;20214;-79
2023/05/26 13:55:13;;;;;;;4.30;0.90;;;19.40;91.30;;;;;;4952689;28;20232;-78
2023/05/26 13:57:40;;;;;;;3.58;1.50;;;19.30;91.20;;;;;;4954438;28;20734;-83
2023/05/26 14:00:08;;;;;;;7.55;1.40;;;19.20;91.00;;;;;;4955864;28;20211;-77
2023/05/26 14:02:37;;;;;;;6.03;1.55;;;19.20;90.70;;;;;;4956089;28;20290;-81
2023/05/26 14:05:04;;;;;;;4.32;1.30;;;19.30;91.10;;;;;;4956051;28;20239;-84
2023/05/26 14:07:31;;;;;;;3.55;0.88;;;19.50;91.20;;;;;;4955262;28;20212;-78
2023/05/26 14:09:58;;;;;;;7.82;1.40;;;19.60;91.50;;;;;;4953911;28;20617;-85
2023/05/26 14:12:25;;;;;;;5.65;1.35;;;19.70;91.50;;;;;;4962089;28;20341;-84
2023/05/26 14:14:52;;;;;;;5.05;1.40;;;19.80;90.70;;;;;;4955814;28;20618;-83
2023/05/26 14:17:19;;;;;;;6.25;1.35;;;19.80;90.90;;;;;;4949498;28;20758;-77
2023/05/26 14:19:47;;;;;;;7.85;1.38;;;19.70;91.60;;;;;;4954667;28;20303;-82
2023/05/26 14:22:15;;;;;;;6.78;1.35;;;19.70;90.50;;;;;;4954865;28;20258;-83
2023/05/26 14:24:42;;;;;;;4.60;1.35;;;19.60;90.70;;;;;;4954791;28;20232;-79
2023/05/26 14:27:08;;;;;;;8.25;1.27;;;19.60;91.30;;;;;;4954459;28;20685;-76
2023/05/26 14:29:35;;;;;;;4.82;1.70;;;19.60;91.40;;;;;;4954803;28;20308;-81
2023/05/26 14:32:02;;;;;;;3.22;1.20;;;19.70;91.00;;;;;;4954534;28;20219;-76
2023/05/26 14:34:29;;;;;;;5.15;1.65;;;19.60;90.90;;;;;;4954486;29;20729;-75
2023/05/26 14:36:57;;;;;;;3.90;1.20;;;19.40;91.10;;;;;;4954521;28;20235;-78
2023/05/26 14:39:24;;;;;;;4.65;1.10;;;19.40;91.70;;;;;;4954347;28;20228;-74
2023/05/26 14:41:51;;;;;;;4.32;1.23;;;19.70;91.70;;;;;;4954635;29;20527;-76
2023/05/26 14:44:18;;;;;;;3.22;1.27;;;19.70;91.90;;;;;;4955096;28;20232;-85
2023/05/26 14:46:45;;;;;;;6.88;1.73;;;19.70;92.30;;;;;;4954532;28;20663;-84
2023/05/26 14:49:12;;;;;;;3.85;1.05;;;19.80;91.20;;;;;;4954690;28;20211;-85
2023/05/26 14:51:39;;;;;;;5.30;1.30;;;20.00;91.20;;;;;;4954107;28;20219;-84
2023/05/26 14:54:08;;;;;;;4.63;1.33;;;19.90;90.50;;;;;;4954047;29;20598;-77
2023/05/26 14:56:35;;;;;;;3.15;1.38;;;20.00;90.30;;;;;;4954966;28;20204;-76
2023/05/26 14:59:02;;;;;;;4.82;1.40;;;19.90;90.70;;;;;;4958566;28;20290;-83
2023/05/26 15:01:29;;;;;;;5.15;1.08;;;19.80;89.60;;;;;;4957594;28;20218;-79
2023/05/26 15:03:55;;;;;;;3.88;1.27;;;19.70;89.10;;;;;;4957928;28;20260;-75
2023/05/26 15:06:22;;;;;;;2.78;1.20;;;19.60;90.00;;;;;;4958438;28;20300;-84
2023/05/26 15:08:49;;;;;;;3.88;1.05;;;19.60;90.70;;;;;;4957846;28;20215;-83
2023/05/26 15:11:17;;;;;;;3.22;1.38;;;19.70;89.40;;;;;;4957808;28;20204;-82
2023/05/26 15:13:44;;;;;;;3.53;1.10;;;19.70;90.50;;;;;;4957584;28;20269;-83
2023/05/26 15:16:12;;;;;;;5.47;1.40;;;19.70;90.30;;;;;;4956911;28;20243;-80
2023/05/26 15:18:39;;;;;;;4.88;1.15;;;19.80;89.80;;;;;;4957647;28;20219;-75
2023/05/26 15:21:06;;;;;;;4.63;1.40;;;19.90;89.80;;;;;;4957876;28;20204;-75
2023/05/26 15:23:33;;;;;;;7.75;1.15;;;19.90;90.40;;;;;;4957903;28;20579;-78
2023/05/26 15:26:00;;;;;;;9.40;1.70;;;20.10;89.20;;;;;;4957240;28;20226;-74
2023/05/26 15:28:28;;;;;;;5.32;1.40;;;20.10;89.60;;;;;;4957075;28;20204;-75
2023/05/26 15:30:56;;;;;;;6.15;1.20;;;20.10;89.00;;;;;;4957565;29;20212;-75
2023/05/26 15:33:23;;;;;;;5.70;1.27;;;20.10;88.70;;;;;;4957686;29;20316;-75
2023/05/26 15:35:50;;;;;;;5.35;1.40;;;20.00;88.80;;;;;;4957459;28;20234;-76
2023/05/26 15:38:17;;;;;;;4.20;0.85;;;20.00;89.80;;;;;;4957877;28;20267;-75
2023/05/26 15:40:46;;;;;;;4.00;1.10;;;19.90;88.20;;;;;;4957309;28;20287;-74
2023/05/26 15:43:13;;;;;;;4.35;1.10;;;20.00;89.10;;;;;;4957078;28;20208;-76
2023/05/26 15:45:41;;;;;;;3.38;1.13;;;20.00;89.00;;;;;;4957140;28;20232;-74
2023/05/26 15:48:08;;;;;;;5.72;1.33;;;20.00;89.00;;;;;;4957499;28;20211;-75
2023/05/26 15:50:35;;;;;;;2.47;1.10;;;19.80;90.00;;;;;;4956995;28;20208;-80
2023/05/26 15:53:02;;;;;;;4.90;1.30;;;19.60;90.00;;;;;;4956868;28;20212;-76
2023/05/26 15:55:29;;;;;;;3.50;1.35;;;19.60;90.20;;;;;;4956995;28;20243;-79
2023/05/26 15:57:57;;;;;;;8.20;1.42;;;19.50;90.20;;;;;;4956890;28;20570;-75
2023/05/26 16:00:25;;;;;;;4.22;0.82;;;19.50;90.30;;;;;;4956793;28;20208;-75
2023/05/26 16:02:53;;;;;;;6.32;1.25;;;19.60;90.10;;;;;;4957112;28;20215;-76
2023/05/26 16:05:20;;;;;;;4.40;1.20;;;19.60;89.50;;;;;;4956940;29;20263;-77
2023/05/26 16:07:47;;;;;;;9.98;2.03;;;19.70;90.10;;;;;;4956767;28;20660;-75
2023/05/26 16:10:14;;;;;;;4.32;1.17;;;19.90;89.20;;;;;;4956732;28;20663;-86
2023/05/26 16:12:41;;;;;;;9.30;1.45;;;20.00;89.70;;;;;;4957562;29;20210;-83
2023/05/26 16:15:09;;;;;;;5.75;1.33;;;20.10;88.90;;;;;;4957345;28;20270;-86
2023/05/26 16:17:36;;;;;;;3.75;1.08;;;20.10;89.00;;;;;;4957940;28;20217;-85
2023/05/26 16:20:06;;;;;;;7.95;1.00;;;20.20;89.90;;;;;;4957615;28;20299;-83
2023/05/26 16:22:33;;;;;;;4.70;1.20;;;20.10;89.70;;;;;;4957474;29;20204;-81
2023/05/26 16:25:00;;;;;;;3.78;1.33;;;20.00;90.30;;;;;;4957112;28;20736;-86
2023/05/26 16:27:27;;;;;;;5.65;1.23;;;20.10;88.90;;;;;;4957465;28;20204;-81
2023/05/26 16:29:54;;;;;;;3.83;1.20;;;20.20;88.50;;;;;;4958167;28;20207;-85
2023/05/26 16:32:21;;;;;;;4.65;1.20;;;20.20;86.80;;;;;;4959491;28;20263;-76
2023/05/26 16:34:48;;;;;;;3.97;0.95;;;20.20;88.30;;;;;;4958996;28;20258;-83
2023/05/26 16:37:16;;;;;;;5.72;1.30;;;19.90;89.00;;;;;;4956619;28;20628;-85
2023/05/26 16:39:43;;;;;;;7.80;1.17;;;19.80;88.80;;;;;;4956788;28;20790;-84
2023/05/26 16:42:10;;;;;;;2.17;0.90;;;19.60;89.10;;;;;;4956514;28;20298;-84
2023/05/26 16:44:37;;;;;;;3.22;1.30;;;19.60;88.70;;;;;;4956049;28;20733;-86
2023/05/26 16:47:04;;;;;;;8.73;2.00;;;19.40;87.90;;;;;;4956746;28;20259;-78
2023/05/26 16:49:31;;;;;;;3.63;1.00;;;19.40;89.00;;;;;;4956098;28;20216;-83
2023/05/26 16:51:58;;;;;;;2.63;1.02;;;19.40;89.50;;;;;;4955681;28;20299;-85
2023/05/26 16:54:26;;;;;;;7.20;1.23;;;19.40;90.10;;;;;;4955646;28;20333;-84
2023/05/26 16:56:53;;;;;;;5.82;1.40;;;19.50;90.40;;;;;;4955910;28;20204;-81
2023/05/26 16:59:21;;;;;;;4.18;1.30;;;19.50;89.80;;;;;;4957426;28;20746;-83
2023/05/26 17:01:48;;;;;;;6.45;1.17;;;19.40;90.10;;;;;;4957209;28;20219;-84
2023/05/26 17:04:15;;;;;;;8.18;1.75;;;19.50;90.50;;;;;;4956018;28;20327;-87
2023/05/26 17:06:41;;;;;;;3.40;1.35;;;19.60;90.00;;;;;;4955970;28;20208;-81
2023/05/26 17:09:09;;;;;;;6.05;1.27;;;19.50;90.30;;;;;;4955809;28;20315;-85
2023/05/26 17:11:37;;;;;;;4.30;1.10;;;19.50;90.20;;;;;;4957155;28;20730;-84
2023/05/26 17:14:04;;;;;;;3.72;1.00;;;19.60;89.20;;;;;;4955955;28;20720;-82
2023/05/26 17:16:31;;;;;;;4.80;1.20;;;19.70;89.10;;;;;;4956007;29;20207;-85
2023/05/26 17:18:58;;;;;;;5.30;1.10;;;19.60;89.70;;;;;;4955535;28;20215;-79
2023/05/26 17:21:25;;;;;;;4.00;1.80;;;19.50;90.30;;;;;;4954867;28;20595;-83
2023/05/26 17:23:52;;;;;;;3.83;1.20;;;19.50;90.30;;;;;;4955311;28;20224;-84
2023/05/26 17:26:19;;;;;;;4.78;1.40;;;19.30;90.90;;;;;;4955081;28;20298;-81
2023/05/26 17:28:47;;;;;;;6.00;1.33;;;19.20;91.20;;;;;;4955005;28;20208;-83
2023/05/26 17:31:15;;;;;;;7.10;1.23;;;19.20;91.20;;;;;;4955251;28;20212;-84
2023/05/26 17:33:42;;;;;;;6.57;1.52;;;19.30;91.50;;;;;;4955549;28;20212;-82
2023/05/26 17:36:09;;;;;;;4.22;1.10;;;19.30;91.10;;;;;;4955288;29;20244;-79
2023/05/26 17:38:37;;;;;;;4.97;1.58;;;19.30;90.70;;;;;;4955103;28;20578;-79
2023/05/26 17:41:06;;;;;;;4.53;0.98;;;19.20;90.80;;;;;;4955455;28;20239;-79
2023/05/26 17:43:33;;;;;;;3.97;1.13;;;19.10;90.10;;;;;;4955064;29;20212;-79
2023/05/26 17:46:03;;;;;;;4.80;1.27;;;19.00;90.90;;;;;;4955085;28;20216;-80
2023/05/26 17:48:30;;;;;;;3.28;1.05;;;18.90;90.80;;;;;;4954950;29;20299;-78
2023/05/26 17:50:57;;;;;;;4.03;1.20;;;18.90;91.10;;;;;;4955059;28;20681;-76
2023/05/26 17:53:23;;;;;;;2.88;1.23;;;18.90;91.00;;;;;;4954921;28;20306;-76
2023/05/26 17:55:50;;;;;;;3.67;0.80;;;18.90;91.60;;;;;;4954819;28;20266;-76
2023/05/26 17:58:18;;;;;;;6.50;1.70;;;18.80;91.40;;;;;;4955082;28;20208;-79
2023/05/26 18:00:45;;;;;;;5.80;1.40;;;18.80;91.60;;;;;;4955066;29;20615;-78
2023/05/26 18:03:13;;;;;;;7.35;0.93;;;18.70;91.60;;;;;;4955297;28;20208;-79
2023/05/26 18:05:40;;;;;;;7.07;1.58;;;18.80;92.10;;;;;;4954955;28;20235;-79
2023/05/26 18:08:07;;;;;;;6.22;1.20;;;18.70;92.20;;;;;;4954897;28;20210;-78
2023/05/26 18:10:34;;;;;;;4.97;1.10;;;18.70;92.10;;;;;;4954685;28;20215;-76
2023/05/26 18:13:01;;;;;;;7.07;1.13;;;18.70;92.10;;;;;;4955016;28;20307;-75
2023/05/26 18:15:29;;;;;;;3.57;1.17;;;18.70;91.80;;;;;;4955277;28;20236;-76
2023/05/26 18:17:56;;;;;;;7.40;1.53;;;18.60;91.50;;;;;;4954992;28;20208;-74
2023/05/26 18:20:27;;;;;;;4.40;1.37;;;18.60;91.70;;;;;;4954808;28;20211;-83
2023/05/26 18:22:55;;;;;;;3.97;1.15;;;18.60;91.80;;;;;;4954890;28;20208;-78
2023/05/26 18:25:22;;;;;;;5.73;1.10;;;18.40;92.20;;;;;;4954463;28;20594;-75
2023/05/26 18:27:51;;;;;;;6.67;1.23;;;18.40;92.20;;;;;;4954911;28;20210;-76
2023/05/26 18:30:18;;;;;;;4.43;1.13;;;18.40;92.10;;;;;;4954586;28;20216;-76
2023/05/26 18:32:45;;;;;;;3.10;1.00;;;18.30;92.20;;;;;;4956928;28;20310;-78
2023/05/26 18:35:13;;;;;;;4.47;1.03;;;18.30;92.00;;;;;;4958242;29;20239;-75
2023/05/26 18:37:41;;;;;;;5.57;1.10;;;18.30;92.00;;;;;;4958291;29;20701;-77
2023/05/26 18:40:09;;;;;;;5.67;1.10;;;18.20;92.10;;;;;;4950162;28;20306;-78
2023/05/26 18:42:40;;;;;;;6.53;1.33;;;18.20;92.40;;;;;;4955894;28;20211;-77
2023/05/26 18:45:08;;;;;;;5.83;1.17;;;18.10;92.60;;;;;;4957665;28;20238;-75
2023/05/26 18:47:35;;;;;;;3.87;1.60;;;18.10;92.40;;;;;;4957604;28;20247;-76
2023/05/26 18:50:02;;;;;;;4.90;1.23;;;18.00;92.80;;;;;;4957652;28;20247;-76
2023/05/26 18:52:29;;;;;;;3.07;0.83;;;17.90;92.90;;;;;;4957728;29;20196;-78
2023/05/26 18:54:57;;;;;;;5.90;0.90;;;17.90;93.20;;;;;;4945591;28;20581;-76
2023/05/26 18:57:24;;;;;;;7.63;1.33;;;17.80;93.10;;;;;;4943361;28;20737;-75
2023/05/26 18:59:51;;;;;;;5.50;1.30;;;17.90;93.20;;;;;;4948048;28;20212;-75
2023/05/26 19:02:18;;;;;;;3.20;1.10;;;18.00;93.30;;;;;;4952624;28;20207;-75
2023/05/26 19:04:45;;;;;;;5.17;0.90;;;17.90;93.30;;;;;;4948434;28;20243;-74
2023/05/26 19:07:11;;;;;;;4.00;1.30;;;17.90;93.50;;;;;;4952232;28;20219;-75
2023/05/26 19:09:39;;;;;;;8.00;1.20;;;18.00;93.60;;;;;;4943438;28;20668;-74
2023/05/26 19:12:07;;;;;;;5.90;0.90;;;17.70;93.80;;;;;;4949593;28;20268;-75
2023/05/26 19:14:34;;;;;;;2.13;0.90;;;17.50;93.90;;;;;;4956268;28;20251;-81
2023/05/26 19:17:01;;;;;;;2.40;1.00;;;17.40;94.40;;;;;;4955157;28;20225;-81
2023/05/26 19:19:28;;;;;;;4.03;1.10;;;17.30;94.40;;;;;;4947439;28;20213;-82
2023/05/26 19:21:55;;;;;;;6.00;1.10;;;17.30;94.50;;;;;;4956659;28;20213;-80
2023/05/26 19:24:22;;;;;;;4.33;1.13;;;17.20;94.60;;;;;;4959361;28;20358;-82
2023/05/26 19:26:49;;;;;;;6.57;0.90;;;17.20;94.80;;;;;;4953282;28;20304;-81
2023/05/26 19:29:17;;;;;;;3.97;1.27;;;17.20;94.90;;;;;;4955648;28;20200;-82
2023/05/26 19:31:44;;;;;;;7.43;1.27;;;17.40;94.90;;;;;;4944949;28;20660;-79
2023/05/26 19:34:11;;;;;;;4.23;1.20;;;17.10;95.00;;;;;;4955106;28;20238;-82
2023/05/26 19:36:38;;;;;;;6.57;1.30;;;16.90;95.60;;;;;;4949587;28;20236;-80
2023/05/26 19:39:05;;;;;;;8.03;1.43;;;16.90;95.70;;;;;;4953361;28;20224;-81
2023/05/26 19:41:32;;;;;;;5.10;1.33;;;17.00;95.60;;;;;;4943638;28;20675;-81
2023/05/26 19:43:59;;;;;;;1.83;0.90;;;16.90;95.90;;;;;;4951986;28;20263;-82
2023/05/26 19:46:27;;;;;;;5.33;1.10;;;16.90;95.90;;;;;;4946814;28;20246;-82
2023/05/26 19:48:55;;;;;;;3.37;1.00;;;16.70;96.20;;;;;;4950884;28;20604;-81
2023/05/26 19:51:23;;;;;;;4.40;1.00;;;16.60;96.30;;;;;;4945996;28;20217;-81
2023/05/26 19:53:50;;;;;;;3.57;1.00;;;16.50;96.40;;;;;;4949509;28;20768;-82
2023/05/26 19:56:17;;;;;;;3.63;1.10;;;16.50;96.60;;;;;;4939166;28;20240;-82
2023/05/26 19:58:44;;;;;;;7.17;1.47;;;16.50;96.70;;;;;;4952663;28;20211;-79
2023/05/26 20:01:11;;;;;;;5.27;1.20;;;16.70;97.00;;;;;;4948252;28;20746;-81
2023/05/26 20:03:39;;;;;;;5.90;1.10;;;16.60;96.70;;;;;;4951128;28;20291;-81
2023/05/26 20:06:06;;;;;;;4.43;1.00;;;16.40;97.10;;;;;;4953348;28;20742;-81
2023/05/26 20:08:34;;;;;;;4.93;1.13;;;16.30;97.20;;;;;;4950028;28;20208;-79
2023/05/26 20:11:01;;;;;;;4.10;1.27;;;16.40;97.10;;;;;;4956368;28;20634;-81
2023/05/26 20:13:28;;;;;;;3.40;0.80;;;16.30;97.20;;;;;;4949846;28;20204;-81
2023/05/26 20:15:54;;;;;;;4.93;1.10;;;16.20;97.30;;;;;;4956246;28;20733;-81
2023/05/26 20:18:22;;;;;;;8.27;1.50;;;16.00;97.60;;;;;;4949373;28;20211;-81
2023/05/26 20:20:50;;;;;;;6.00;1.17;;;16.00;97.70;;;;;;4955816;28;20291;-80
2023/05/26 20:23:17;;;;;;;6.70;1.30;;;16.00;97.90;;;;;;4947729;28;20214;-82
2023/05/26 20:25:44;;;;;;;3.87;0.90;;;16.00;97.90;;;;;;4954977;28;20234;-79
2023/05/26 20:28:10;;;;;;;2.30;0.90;;;15.80;98.10;;;;;;4951006;28;20208;-81
2023/05/26 20:30:37;;;;;;;2.90;1.00;;;15.80;98.10;;;;;;4953906;28;20671;-81
